Time;durP1;ratioP1;P1;durP2;ratioP2;P2;SDS_P1;SDS_P2;PMS_P1;PMS_P2;Temp;Humidity;BMP_temperature;BMP_pressure;BME280_temperature;BME280_humidity;BME280_pressure;Samples;Min_cycle;Max_cycle;Signal;HPM_P1;HPM_P2
2024/04/03 00:02:03;;;;;;;15.68;7.07;;;7.70;99.90;;;;;;7367942;19;20018;-65
2024/04/03 00:04:35;;;;;;;20.25;7.20;;;7.70;99.90;;;;;;7370228;19;20025;-63
2024/04/03 00:07:01;;;;;;;22.55;7.95;;;7.80;99.90;;;;;;7372642;19;20663;-64
2024/04/03 00:09:27;;;;;;;14.68;7.68;;;7.80;99.90;;;;;;7367187;19;20014;-65
2024/04/03 00:11:53;;;;;;;17.58;6.75;;;7.80;99.90;;;;;;7373224;19;20018;-64
2024/04/03 00:14:19;;;;;;;19.02;7.47;;;7.90;99.90;;;;;;7367891;19;20018;-63
2024/04/03 00:16:45;;;;;;;17.60;7.43;;;7.90;99.90;;;;;;7369987;19;20903;-65
2024/04/03 00:19:12;;;;;;;14.70;7.35;;;8.00;99.90;;;;;;7365051;19;20020;-66
2024/04/03 00:21:39;;;;;;;22.40;7.72;;;8.10;99.90;;;;;;7369900;19;20018;-65
2024/04/03 00:24:05;;;;;;;22.65;7.40;;;8.10;99.90;;;;;;7367648;19;20034;-66
2024/04/03 00:26:31;;;;;;;20.17;8.05;;;8.10;99.90;;;;;;7368330;19;20543;-64
2024/04/03 00:28:57;;;;;;;19.20;7.10;;;8.20;99.90;;;;;;7370323;19;20020;-64
2024/04/03 00:31:23;;;;;;;16.02;6.85;;;8.20;99.90;;;;;;7365861;19;20018;-64
2024/04/03 00:33:50;;;;;;;24.25;7.18;;;8.30;99.90;;;;;;7369296;19;20370;-66
2024/04/03 00:36:16;;;;;;;26.17;7.70;;;8.30;99.90;;;;;;7370765;19;20454;-65
2024/04/03 00:38:43;;;;;;;17.63;6.63;;;8.30;99.90;;;;;;7371531;19;20036;-65
2024/04/03 00:41:12;;;;;;;16.65;6.82;;;8.30;99.90;;;;;;7374096;19;20902;-65
2024/04/03 00:43:38;;;;;;;20.55;6.85;;;8.30;99.90;;;;;;7372704;19;20030;-65
2024/04/03 00:46:09;;;;;;;16.45;6.03;;;8.30;99.90;;;;;;7370874;19;20086;-65
2024/04/03 00:48:35;;;;;;;17.38;6.53;;;8.30;99.90;;;;;;7367279;19;20109;-67
2024/04/03 00:51:03;;;;;;;18.20;6.72;;;8.30;99.90;;;;;;7369065;19;20702;-64
2024/04/03 00:53:30;;;;;;;17.92;7.97;;;8.30;99.90;;;;;;7366153;19;20026;-66
2024/04/03 00:55:56;;;;;;;18.00;6.72;;;8.30;99.90;;;;;;7369673;19;20078;-64
2024/04/03 00:58:23;;;;;;;19.10;6.60;;;8.30;99.90;;;;;;7364034;19;20014;-66
2024/04/03 01:00:49;;;;;;;15.27;6.63;;;8.30;99.90;;;;;;7361226;19;20019;-65
2024/04/03 01:03:15;;;;;;;19.88;6.80;;;8.20;99.90;;;;;;7368973;19;20022;-67
2024/04/03 01:05:41;;;;;;;14.43;5.93;;;8.20;99.90;;;;;;7371687;19;20018;-67
2024/04/03 01:08:08;;;;;;;20.13;7.05;;;8.20;99.90;;;;;;7364743;19;20021;-65
2024/04/03 01:10:34;;;;;;;20.27;5.85;;;8.20;99.90;;;;;;7369582;19;20498;-65
2024/04/03 01:13:03;;;;;;;21.45;6.88;;;8.20;99.90;;;;;;7367729;19;20023;-67
2024/04/03 01:15:29;;;;;;;16.55;6.60;;;8.20;99.90;;;;;;7360925;19;20030;-66
2024/04/03 01:17:55;;;;;;;16.60;6.82;;;8.20;99.90;;;;;;7366446;19;20015;-65
2024/04/03 01:20:23;;;;;;;20.27;7.13;;;8.20;99.90;;;;;;7365651;19;20458;-65
2024/04/03 01:22:50;;;;;;;17.70;6.72;;;8.20;99.90;;;;;;7369461;19;20896;-64
2024/04/03 01:25:17;;;;;;;17.02;6.25;;;8.20;99.90;;;;;;7369120;19;20028;-65
2024/04/03 01:27:43;;;;;;;18.75;6.97;;;8.20;99.90;;;;;;7364998;19;20019;-64
2024/04/03 01:30:10;;;;;;;20.52;6.55;;;8.20;99.90;;;;;;7366563;19;20033;-64
2024/04/03 01:32:37;;;;;;;18.77;7.10;;;8.30;99.90;;;;;;7373417;19;20014;-65
2024/04/03 01:35:05;;;;;;;23.48;7.22;;;8.30;99.90;;;;;;7376514;19;20033;-66
2024/04/03 01:37:31;;;;;;;16.35;7.05;;;8.30;99.90;;;;;;7373855;19;20357;-64
2024/04/03 01:39:58;;;;;;;21.63;7.93;;;8.30;99.90;;;;;;7368460;19;21261;-63
2024/04/03 01:42:25;;;;;;;20.17;7.45;;;8.30;99.90;;;;;;7375837;19;20086;-65
2024/04/03 01:44:51;;;;;;;21.25;7.35;;;8.30;99.90;;;;;;7370785;19;20033;-64
2024/04/03 01:47:17;;;;;;;19.73;7.70;;;8.30;99.90;;;;;;7365985;19;20021;-66
2024/04/03 01:49:44;;;;;;;28.65;7.95;;;8.30;99.90;;;;;;7371338;19;20018;-64
2024/04/03 01:52:10;;;;;;;22.92;7.90;;;8.40;99.90;;;;;;7373683;19;20126;-64
2024/04/03 01:54:36;;;;;;;18.55;6.78;;;8.40;99.90;;;;;;7371726;19;20102;-64
2024/04/03 01:57:02;;;;;;;18.67;6.90;;;8.40;99.90;;;;;;7367929;19;20019;-65
2024/04/03 01:59:29;;;;;;;23.55;7.65;;;8.50;99.90;;;;;;7374585;19;20030;-65
2024/04/03 02:01:55;;;;;;;23.20;7.65;;;8.50;99.90;;;;;;7372075;19;20105;-65
2024/04/03 02:04:22;;;;;;;20.25;6.60;;;8.60;99.90;;;;;;7366902;19;20022;-68
2024/04/03 02:06:48;;;;;;;18.08;6.15;;;8.60;99.90;;;;;;7375681;19;20634;-66
2024/04/03 02:09:14;;;;;;;20.70;6.10;;;8.70;99.90;;;;;;7371944;19;20090;-67
2024/04/03 02:11:41;;;;;;;19.98;6.60;;;8.70;99.90;;;;;;7374489;19;20022;-67
2024/04/03 02:14:12;;;;;;;21.17;5.63;;;8.80;99.90;;;;;;7370549;19;20025;-65
2024/04/03 02:16:43;;;;;;;16.95;5.50;;;8.80;99.90;;;;;;7371562;19;20363;-64
2024/04/03 02:19:09;;;;;;;19.98;6.00;;;8.90;99.90;;;;;;7369925;19;20039;-65
2024/04/03 02:21:37;;;;;;;21.40;6.15;;;8.90;99.90;;;;;;7372730;19;20868;-64
2024/04/03 02:24:05;;;;;;;22.17;6.47;;;8.90;99.90;;;;;;7375492;19;20019;-64
2024/04/03 02:26:31;;;;;;;15.48;6.00;;;8.90;99.90;;;;;;7368263;19;20464;-64
2024/04/03 02:28:57;;;;;;;16.05;5.22;;;8.90;99.90;;;;;;7370701;19;20019;-64
2024/04/03 02:31:23;;;;;;;19.92;6.07;;;8.90;99.90;;;;;;7366828;19;20932;-64
2024/04/03 02:33:50;;;;;;;18.13;5.95;;;8.90;99.90;;;;;;7377067;19;20022;-65
2024/04/03 02:36:17;;;;;;;14.40;5.95;;;8.90;99.90;;;;;;7370340;19;20040;-67
2024/04/03 02:38:43;;;;;;;17.83;6.35;;;8.90;99.90;;;;;;7370428;19;20018;-64
2024/04/03 02:41:10;;;;;;;19.65;7.20;;;8.80;99.90;;;;;;7368825;19;20021;-63
2024/04/03 02:43:36;;;;;;;19.58;6.40;;;8.90;99.90;;;;;;7369424;19;20053;-64
2024/04/03 02:46:03;;;;;;;18.95;7.80;;;8.90;99.90;;;;;;7372120;19;20014;-67
2024/04/03 02:48:29;;;;;;;22.08;6.20;;;8.90;99.90;;;;;;7373450;19;20019;-66
2024/04/03 02:51:07;;;;;;;15.70;6.72;;;8.80;99.90;;;;;;7373882;19;20026;-65
2024/04/03 02:53:34;;;;;;;23.73;8.45;;;8.80;99.90;;;;;;7373950;19;20018;-66
2024/04/03 02:56:08;;;;;;;20.02;7.03;;;8.80;99.90;;;;;;7376148;19;20094;-65
2024/04/03 02:58:35;;;;;;;21.52;7.30;;;8.80;99.90;;;;;;7369850;19;20022;-65
2024/04/03 03:01:04;;;;;;;23.10;8.93;;;8.70;99.90;;;;;;7368130;19;20712;-64
2024/04/03 03:03:34;;;;;;;22.75;8.88;;;8.70;99.90;;;;;;7369619;19;20044;-63
2024/04/03 03:06:02;;;;;;;27.15;10.43;;;8.70;99.90;;;;;;7376178;19;20056;-65
2024/04/03 03:08:30;;;;;;;27.02;10.15;;;8.70;99.90;;;;;;7369048;19;20010;-63
2024/04/03 03:11:01;;;;;;;26.90;10.27;;;8.70;99.90;;;;;;7366658;19;20494;-64
2024/04/03 03:13:28;;;;;;;29.13;10.45;;;8.70;99.90;;;;;;7372271;19;20125;-67
2024/04/03 03:15:59;;;;;;;28.70;10.77;;;8.70;99.90;;;;;;7374557;19;20442;-66
2024/04/03 03:18:30;;;;;;;26.92;10.80;;;8.70;99.90;;;;;;7364763;19;20546;-64
2024/04/03 03:20:56;;;;;;;23.17;10.10;;;8.70;99.90;;;;;;7365399;19;20050;-64
2024/04/03 03:23:23;;;;;;;28.63;11.48;;;8.70;99.90;;;;;;7372130;19;20020;-63
2024/04/03 03:25:53;;;;;;;21.50;10.75;;;8.60;99.90;;;;;;7370175;19;20018;-66
2024/04/03 03:28:20;;;;;;;26.25;11.63;;;8.60;99.90;;;;;;7373476;19;20018;-65
2024/04/03 03:30:48;;;;;;;23.52;10.55;;;8.70;99.90;;;;;;7364944;19;20026;-65
2024/04/03 03:33:14;;;;;;;24.27;10.95;;;8.60;99.90;;;;;;7373858;19;20022;-65
2024/04/03 03:35:41;;;;;;;26.65;11.30;;;8.60;99.90;;;;;;7370871;19;20089;-64
2024/04/03 03:38:08;;;;;;;26.70;12.32;;;8.60;99.90;;;;;;7369176;19;20026;-65
2024/04/03 03:40:38;;;;;;;26.63;11.15;;;8.60;99.90;;;;;;7368979;19;20685;-66
2024/04/03 03:43:05;;;;;;;26.35;11.77;;;8.60;99.90;;;;;;7368477;19;20034;-69
2024/04/03 03:45:31;;;;;;;24.95;11.07;;;8.60;99.90;;;;;;7373275;19;20011;-65
2024/04/03 03:47:57;;;;;;;27.67;12.00;;;8.60;99.90;;;;;;7367633;19;20033;-65
2024/04/03 03:53:08;;;;;;;29.95;12.60;;;8.60;99.90;;;;;;7371249;19;20018;-63
2024/04/03 03:55:35;;;;;;;29.30;13.05;;;8.60;99.90;;;;;;7370468;19;20584;-64
2024/04/03 03:58:02;;;;;;;24.85;12.60;;;8.60;99.90;;;;;;7368883;19;20091;-62
2024/04/03 04:00:28;;;;;;;26.17;12.25;;;8.60;99.90;;;;;;7367769;19;20026;-64
2024/04/03 04:02:54;;;;;;;28.83;12.32;;;8.60;99.90;;;;;;7372810;19;20503;-63
2024/04/03 04:05:20;;;;;;;27.67;13.73;;;8.50;99.90;;;;;;7369967;19;20030;-63
2024/04/03 04:07:47;;;;;;;36.17;13.77;;;8.60;99.90;;;;;;7370974;19;20040;-63
2024/04/03 04:10:13;;;;;;;30.52;14.45;;;8.60;99.90;;;;;;7372057;19;20644;-67
2024/04/03 04:12:40;;;;;;;33.75;14.30;;;8.60;99.90;;;;;;7368926;19;20090;-65
2024/04/03 04:15:07;;;;;;;37.72;15.95;;;8.60;99.90;;;;;;7370699;19;20514;-64
2024/04/03 04:17:33;;;;;;;28.02;15.25;;;8.60;99.90;;;;;;7365831;19;20018;-63
2024/04/03 04:20:00;;;;;;;37.03;16.20;;;8.60;99.90;;;;;;7358571;19;20014;-64
2024/04/03 04:22:27;;;;;;;31.40;15.82;;;8.60;99.90;;;;;;7364989;19;20082;-63
2024/04/03 04:24:54;;;;;;;36.72;16.30;;;8.60;99.90;;;;;;7369783;19;20125;-62
2024/04/03 04:27:21;;;;;;;32.17;16.40;;;8.60;99.90;;;;;;7362231;19;20029;-65
2024/04/03 04:29:47;;;;;;;29.13;16.25;;;8.60;99.90;;;;;;7368689;19;20021;-64
2024/04/03 04:32:13;;;;;;;41.75;19.02;;;8.60;99.90;;;;;;7370673;19;20018;-65
2024/04/03 04:34:40;;;;;;;35.17;17.83;;;8.60;99.90;;;;;;7369762;19;20026;-64
2024/04/03 04:37:08;;;;;;;37.38;18.73;;;8.60;99.90;;;;;;7366401;19;20014;-64
2024/04/03 04:39:35;;;;;;;41.75;19.90;;;8.60;99.90;;;;;;7368902;19;20033;-63
2024/04/03 04:42:02;;;;;;;45.63;19.73;;;8.60;99.90;;;;;;7371468;19;20028;-64
2024/04/03 04:44:29;;;;;;;38.15;18.60;;;8.70;99.90;;;;;;7365189;19;20011;-63
2024/04/03 04:46:58;;;;;;;43.65;21.40;;;8.60;99.90;;;;;;7370987;19;20010;-64
2024/04/03 04:49:24;;;;;;;37.85;20.30;;;8.70;99.90;;;;;;7364414;19;20014;-64
2024/04/03 04:51:51;;;;;;;45.38;20.60;;;8.70;99.90;;;;;;7372299;19;20018;-63
2024/04/03 04:54:17;;;;;;;52.35;22.33;;;8.70;99.90;;;;;;7370507;19;20015;-64
2024/04/03 04:56:47;;;;;;;42.17;21.52;;;8.70;99.90;;;;;;7372384;19;20019;-64
2024/04/03 04:59:13;;;;;;;47.75;22.65;;;8.70;99.90;;;;;;7364177;19;20025;-64
2024/04/03 05:01:45;;;;;;;;;;;8.70;99.90;;;;;;7367457;19;20482;-63
2024/04/03 05:04:13;;;;;;;45.20;21.25;;;8.80;99.90;;;;;;7372670;19;19926;-63
2024/04/03 05:06:39;;;;;;;47.28;22.75;;;8.70;99.90;;;;;;7364657;19;20018;-63
2024/04/03 05:09:06;;;;;;;47.72;24.40;;;8.70;99.90;;;;;;7367088;19;20285;-63
2024/04/03 05:11:33;;;;;;;45.20;21.30;;;8.70;99.90;;;;;;7366227;19;20785;-63
2024/04/03 05:14:00;;;;;;;37.72;22.02;;;8.70;99.90;;;;;;7368467;19;20018;-64
2024/04/03 05:16:26;;;;;;;47.75;22.70;;;8.70;99.90;;;;;;7363029;19;20018;-65
2024/04/03 05:18:53;;;;;;;40.80;21.95;;;8.70;99.90;;;;;;7363328;19;20035;-65
2024/04/03 05:21:22;;;;;;;45.13;21.27;;;8.70;99.90;;;;;;7365923;19;20014;-66
2024/04/03 05:23:48;;;;;;;42.65;21.98;;;8.70;99.90;;;;;;7367873;19;20018;-65
2024/04/03 05:26:15;;;;;;;34.67;21.13;;;8.70;99.90;;;;;;7369139;19;20528;-64
2024/04/03 05:28:42;;;;;;;41.90;22.17;;;8.80;99.90;;;;;;7367456;19;20031;-64
2024/04/03 05:31:10;;;;;;;42.90;23.08;;;8.80;99.90;;;;;;7368402;19;20015;-65
2024/04/03 05:33:38;;;;;;;42.03;21.58;;;8.80;99.90;;;;;;7371577;19;20726;-63
2024/04/03 05:36:05;;;;;;;42.63;22.08;;;8.80;99.90;;;;;;7372921;19;20014;-64
2024/04/03 05:38:32;;;;;;;38.63;23.38;;;8.80;99.90;;;;;;7367143;19;20023;-64
2024/04/03 05:40:58;;;;;;;40.75;23.15;;;8.80;99.90;;;;;;7371717;19;20498;-64
2024/04/03 05:43:25;;;;;;;45.28;22.85;;;8.90;99.90;;;;;;7363064;19;20018;-63
2024/04/03 05:45:54;;;;;;;48.58;24.52;;;8.90;99.90;;;;;;7370021;19;20438;-61
2024/04/03 05:48:21;;;;;;;45.28;23.90;;;8.90;99.90;;;;;;7359675;19;20018;-61
2024/04/03 05:50:57;;;;;;;45.20;23.45;;;8.90;99.90;;;;;;7362152;19;20771;-63
2024/04/03 05:53:24;;;;;;;49.83;25.23;;;8.90;99.90;;;;;;7367936;19;20022;-63
2024/04/03 05:55:54;;;;;;;47.67;25.55;;;8.90;99.90;;;;;;7369180;19;20014;-63
2024/04/03 05:58:20;;;;;;;52.78;26.10;;;8.90;99.90;;;;;;7366892;19;20019;-63
2024/04/03 06:00:48;;;;;;;48.72;25.17;;;9.00;99.90;;;;;;7367712;19;20022;-63
2024/04/03 06:03:15;;;;;;;50.00;25.55;;;9.00;99.90;;;;;;7364226;19;20018;-63
2024/04/03 06:05:41;;;;;;;51.17;26.42;;;9.00;99.90;;;;;;7363529;19;20411;-64
2024/04/03 06:08:08;;;;;;;49.58;25.50;;;9.00;99.90;;;;;;7371653;19;20022;-63
2024/04/03 06:10:36;;;;;;;54.28;25.25;;;9.10;99.90;;;;;;7361948;19;20025;-63
2024/04/03 06:13:06;;;;;;;50.55;26.75;;;9.10;99.90;;;;;;7371776;19;20018;-63
2024/04/03 06:15:34;;;;;;;45.60;25.38;;;9.10;99.90;;;;;;7369313;19;20022;-64
2024/04/03 06:18:01;;;;;;;48.78;25.35;;;9.10;99.90;;;;;;7372352;19;20082;-64
2024/04/03 06:20:27;;;;;;;48.90;26.40;;;9.10;99.90;;;;;;7374413;19;20014;-63
2024/04/03 06:22:54;;;;;;;45.08;25.20;;;9.20;99.90;;;;;;7374577;19;20382;-65
2024/04/03 06:25:21;;;;;;;51.50;25.48;;;9.20;99.90;;;;;;7378203;19;20039;-65
2024/04/03 06:27:47;;;;;;;48.22;26.95;;;9.20;99.90;;;;;;7378795;19;20370;-64
2024/04/03 06:30:14;;;;;;;50.67;24.77;;;9.20;99.90;;;;;;7377629;19;20023;-64
2024/04/03 06:32:41;;;;;;;40.17;23.50;;;9.20;99.90;;;;;;7378573;19;20478;-64
2024/04/03 06:35:09;;;;;;;51.58;25.52;;;9.30;99.90;;;;;;7375850;19;20078;-64
2024/04/03 06:37:35;;;;;;;45.08;22.88;;;9.30;99.90;;;;;;7375979;19;20022;-64
2024/04/03 06:40:02;;;;;;;46.40;23.88;;;9.30;99.90;;;;;;7375581;19;20014;-60
2024/04/03 06:42:28;;;;;;;41.45;23.75;;;9.30;99.90;;;;;;7376853;19;20018;-64
2024/04/03 06:44:55;;;;;;;45.83;23.40;;;9.40;99.90;;;;;;7377728;19;20022;-64
2024/04/03 06:47:26;;;;;;;36.75;21.88;;;9.40;99.90;;;;;;7375115;19;20041;-65
2024/04/03 06:49:56;;;;;;;35.08;21.77;;;9.40;99.90;;;;;;7378115;19;20018;-65
2024/04/03 06:52:26;;;;;;;37.35;21.27;;;9.50;99.90;;;;;;7379204;19;20030;-65
2024/04/03 06:54:54;;;;;;;34.55;19.77;;;9.50;99.90;;;;;;7379717;19;20762;-65
2024/04/03 06:57:22;;;;;;;30.10;19.90;;;9.60;99.90;;;;;;7375281;19;20014;-65
2024/04/03 06:59:49;;;;;;;29.52;18.50;;;9.60;99.90;;;;;;7378483;19;20018;-64
2024/04/03 07:02:16;;;;;;;31.13;18.55;;;9.60;99.90;;;;;;7377230;19;20025;-65
2024/04/03 07:04:42;;;;;;;29.58;18.63;;;9.60;99.90;;;;;;7372402;19;20026;-64
2024/04/03 07:07:08;;;;;;;26.75;15.38;;;9.70;99.90;;;;;;7375201;19;20022;-63
2024/04/03 07:09:35;;;;;;;25.20;16.55;;;9.60;99.90;;;;;;7368029;19;20014;-63
2024/04/03 07:12:04;;;;;;;24.95;16.38;;;9.70;99.90;;;;;;7369495;19;20026;-61
2024/04/03 07:14:31;;;;;;;24.50;15.77;;;9.60;99.90;;;;;;7371573;19;20018;-64
2024/04/03 07:16:58;;;;;;;22.80;15.88;;;9.60;99.90;;;;;;7370962;19;20026;-64
2024/04/03 07:19:24;;;;;;;24.05;16.60;;;9.70;99.90;;;;;;7371477;19;20018;-62
2024/04/03 07:21:51;;;;;;;21.45;14.93;;;9.60;99.90;;;;;;7371727;19;20025;-65
2024/04/03 07:24:17;;;;;;;20.48;14.00;;;9.60;99.90;;;;;;7372497;19;20015;-62
2024/04/03 07:26:44;;;;;;;21.77;15.30;;;9.70;99.90;;;;;;7375565;19;20018;-64
2024/04/03 07:29:14;;;;;;;23.83;14.52;;;9.70;99.90;;;;;;7376889;19;20038;-65
2024/04/03 07:31:41;;;;;;;22.60;14.27;;;9.70;99.90;;;;;;7375071;19;20022;-65
2024/04/03 07:34:07;;;;;;;23.77;15.63;;;9.70;99.90;;;;;;7371765;19;20081;-64
2024/04/03 07:36:34;;;;;;;23.30;14.85;;;9.70;99.90;;;;;;7371607;19;20022;-63
2024/04/03 07:39:01;;;;;;;21.80;14.77;;;9.80;99.90;;;;;;7376084;19;20383;-63
2024/04/03 07:41:32;;;;;;;21.25;14.70;;;9.80;99.90;;;;;;7370385;19;20104;-64
2024/04/03 07:43:59;;;;;;;;;;;9.80;99.90;;;;;;7375036;19;20022;-64
2024/04/03 07:46:25;;;;;;;23.70;14.73;;;9.90;99.90;;;;;;7372437;19;19981;-64
2024/04/03 07:48:52;;;;;;;19.75;13.18;;;9.90;99.90;;;;;;7374628;19;20732;-65
2024/04/03 07:51:18;;;;;;;18.70;12.48;;;9.90;99.90;;;;;;7369245;19;20018;-64
2024/04/03 07:53:44;;;;;;;16.88;13.27;;;9.90;99.90;;;;;;7372408;19;20086;-64
2024/04/03 07:56:14;;;;;;;17.33;12.32;;;9.90;99.90;;;;;;7366387;19;20758;-63
2024/04/03 07:58:41;;;;;;;18.40;12.80;;;9.90;99.90;;;;;;7365149;19;20116;-64
2024/04/03 08:01:08;;;;;;;17.75;12.68;;;9.90;99.90;;;;;;7359763;19;20027;-64
2024/04/03 08:03:37;;;;;;;16.98;12.65;;;9.90;99.90;;;;;;7371248;19;20022;-64
2024/04/03 08:06:05;;;;;;;18.60;12.02;;;9.90;99.90;;;;;;7369270;19;20418;-64
2024/04/03 08:08:31;;;;;;;17.45;12.50;;;10.00;99.90;;;;;;7373086;19;20097;-61
2024/04/03 08:11:03;;;;;;;14.93;11.15;;;10.00;99.90;;;;;;7363716;19;20439;-66
2024/04/03 08:13:31;;;;;;;20.67;12.25;;;10.10;99.90;;;;;;7370732;19;20022;-64
2024/04/03 08:15:59;;;;;;;19.50;11.52;;;10.20;99.90;;;;;;7374088;19;20059;-67
2024/04/03 08:18:26;;;;;;;17.35;10.95;;;10.20;99.90;;;;;;7378121;19;20604;-67
2024/04/03 08:21:06;;;;;;;18.30;11.65;;;10.30;99.90;;;;;;7370815;19;20015;-67
2024/04/03 08:23:33;;;;;;;16.67;10.90;;;10.30;99.90;;;;;;7373760;19;20106;-66
2024/04/03 08:26:08;;;;;;;14.70;10.73;;;10.40;99.90;;;;;;7372652;19;20011;-67
2024/04/03 08:28:39;;;;;;;15.93;11.02;;;10.40;99.90;;;;;;7374947;19;20019;-67
2024/04/03 08:31:12;;;;;;;15.32;10.32;;;10.50;99.90;;;;;;7364786;19;20021;-67
2024/04/03 08:33:39;;;;;;;16.15;10.45;;;10.50;99.90;;;;;;7364646;19;20014;-66
2024/04/03 08:36:10;;;;;;;17.45;10.20;;;10.60;99.90;;;;;;7365570;19;20033;-67
2024/04/03 08:38:37;;;;;;;15.88;9.35;;;10.60;99.90;;;;;;7369170;19;20022;-67
2024/04/03 08:41:04;;;;;;;15.43;9.68;;;10.60;99.90;;;;;;7370134;19;20015;-65
2024/04/03 08:43:30;;;;;;;12.63;8.88;;;10.70;99.90;;;;;;7368701;19;20101;-65
2024/04/03 08:46:00;;;;;;;13.15;9.32;;;10.70;99.90;;;;;;7368657;19;20545;-65
2024/04/03 08:48:27;;;;;;;12.82;7.82;;;10.70;99.90;;;;;;7371459;19;20039;-66
2024/04/03 08:50:55;;;;;;;14.90;9.13;;;10.70;99.90;;;;;;7366486;19;20273;-65
2024/04/03 08:53:25;;;;;;;14.10;8.70;;;10.80;99.90;;;;;;7370740;19;20477;-65
2024/04/03 08:55:55;;;;;;;12.52;8.35;;;10.80;99.90;;;;;;7362313;19;20878;-65
2024/04/03 08:58:22;;;;;;;12.57;8.45;;;10.70;99.90;;;;;;7366636;19;20014;-63
2024/04/03 09:00:49;;;;;;;14.30;8.30;;;10.70;99.90;;;;;;7365606;19;20882;-63
2024/04/03 09:03:16;;;;;;;14.50;8.25;;;10.60;99.90;;;;;;7368304;19;20025;-63
2024/04/03 09:05:43;;;;;;;10.73;8.73;;;10.60;99.90;;;;;;7360109;19;20019;-63
2024/04/03 09:08:10;;;;;;;11.15;8.63;;;10.50;99.90;;;;;;7360191;19;20030;-63
2024/04/03 09:11:01;;;;;;;13.52;9.02;;;10.50;99.90;;;;;;7368267;19;20101;-63
2024/04/03 09:13:27;;;;;;;13.05;9.82;;;10.40;99.90;;;;;;7371174;19;20030;-63
2024/04/03 09:15:54;;;;;;;11.27;10.07;;;10.50;99.90;;;;;;7368612;19;20026;-67
2024/04/03 09:18:20;;;;;;;16.15;12.25;;;10.50;99.90;;;;;;7359928;19;20048;-63
2024/04/03 09:20:51;;;;;;;15.13;12.70;;;10.50;99.90;;;;;;7369354;19;20478;-63
2024/04/03 09:23:17;;;;;;;17.70;13.88;;;10.50;99.90;;;;;;7366063;19;20754;-66
2024/04/03 09:25:44;;;;;;;18.92;16.45;;;10.60;99.90;;;;;;7366935;19;20755;-66
2024/04/03 09:28:12;;;;;;;21.80;16.65;;;10.60;99.90;;;;;;7370660;19;20031;-66
2024/04/03 09:30:48;;;;;;;21.60;17.83;;;10.70;99.90;;;;;;7362601;19;20056;-67
2024/04/03 09:33:16;;;;;;;21.30;18.10;;;10.80;99.90;;;;;;7367719;19;20026;-66
2024/04/03 09:35:43;;;;;;;21.05;17.52;;;10.90;99.90;;;;;;7367901;19;20082;-66
2024/04/03 09:38:14;;;;;;;19.95;17.65;;;11.00;99.90;;;;;;7369673;19;20018;-66
2024/04/03 09:40:41;;;;;;;18.20;16.27;;;11.10;99.90;;;;;;7361606;19;20026;-64
2024/04/03 09:43:11;;;;;;;19.58;15.73;;;11.10;99.90;;;;;;7367147;19;20022;-64
2024/04/03 09:45:39;;;;;;;17.30;15.38;;;11.20;99.90;;;;;;7367773;19;20038;-65
2024/04/03 09:48:07;;;;;;;21.40;15.07;;;11.30;99.90;;;;;;7367933;19;20030;-66
2024/04/03 09:50:44;;;;;;;16.75;14.43;;;11.40;99.90;;;;;;7366884;19;20019;-66
2024/04/03 09:53:25;;;;;;;14.90;13.30;;;11.50;99.90;;;;;;7367179;19;20025;-63
2024/04/03 09:55:52;;;;;;;15.63;13.57;;;11.50;99.90;;;;;;7373640;19;21067;-64
2024/04/03 09:58:21;;;;;;;18.40;13.85;;;11.50;99.90;;;;;;7369814;19;20023;-61
2024/04/03 10:00:56;;;;;;;15.77;12.77;;;11.60;99.90;;;;;;7368749;19;20704;-63
2024/04/03 10:03:25;;;;;;;17.30;12.45;;;11.70;99.90;;;;;;7368730;19;20018;-63
2024/04/03 10:06:10;;;;;;;16.45;13.77;;;11.70;99.90;;;;;;7372906;19;20022;-64
2024/04/03 10:08:41;;;;;;;14.15;12.60;;;11.70;99.90;;;;;;7375861;19;20022;-66
2024/04/03 10:11:11;;;;;;;;;;;11.70;99.90;;;;;;7372149;19;20795;-65
2024/04/03 10:13:40;;;;;;;17.05;12.07;;;11.60;99.90;;;;;;7370460;19;19926;-64
2024/04/03 10:16:07;;;;;;;14.63;11.65;;;11.60;99.90;;;;;;7375490;19;20383;-65
2024/04/03 10:18:40;;;;;;;15.10;11.40;;;11.60;99.90;;;;;;7373641;19;20049;-65
2024/04/03 10:21:10;;;;;;;15.07;13.15;;;11.60;99.90;;;;;;7372539;19;20019;-65
2024/04/03 10:23:45;;;;;;;14.05;11.80;;;11.50;99.90;;;;;;7374593;19;20478;-65
2024/04/03 10:26:12;;;;;;;18.83;13.07;;;11.50;99.90;;;;;;7371624;19;20024;-65
2024/04/03 10:28:39;;;;;;;14.80;13.07;;;11.50;99.90;;;;;;7374445;19;20014;-65
2024/04/03 10:31:10;;;;;;;16.73;13.55;;;11.40;99.90;;;;;;7372038;19;20030;-64
2024/04/03 10:33:36;;;;;;;15.23;13.65;;;11.40;99.90;;;;;;7372697;19;20053;-63
2024/04/03 10:36:03;;;;;;;13.43;11.20;;;11.30;99.90;;;;;;7378380;19;20022;-63
2024/04/03 10:38:32;;;;;;;16.85;13.82;;;11.20;99.90;;;;;;7373987;19;20370;-63
2024/04/03 10:40:58;;;;;;;17.55;14.25;;;11.10;99.90;;;;;;7371986;19;20018;-64
2024/04/03 10:43:24;;;;;;;17.25;13.38;;;11.10;99.90;;;;;;7377367;19;20027;-63
2024/04/03 10:45:52;;;;;;;17.98;15.23;;;11.20;99.90;;;;;;7372426;19;20027;-64
2024/04/03 10:48:23;;;;;;;17.27;12.60;;;11.20;99.90;;;;;;7377198;19;20035;-64
2024/04/03 10:50:50;;;;;;;12.30;10.77;;;11.20;99.90;;;;;;7370826;19;20403;-64
2024/04/03 10:53:17;;;;;;;13.68;10.20;;;11.20;99.90;;;;;;7372540;19;20413;-63
2024/04/03 10:55:47;;;;;;;15.68;10.32;;;11.20;99.90;;;;;;7369870;19;20028;-63
2024/04/03 10:58:13;;;;;;;12.85;9.38;;;11.20;99.90;;;;;;7375522;19;20581;-63
2024/04/03 11:00:41;;;;;;;11.05;8.73;;;11.20;99.90;;;;;;7366731;19;20027;-64
2024/04/03 11:03:11;;;;;;;14.35;8.77;;;11.20;99.90;;;;;;7370995;19;20019;-63
2024/04/03 11:05:38;;;;;;;11.32;8.50;;;11.20;99.90;;;;;;7368619;19;20035;-63
2024/04/03 11:08:09;;;;;;;10.93;8.02;;;11.20;99.90;;;;;;7364154;19;20679;-63
2024/04/03 11:10:36;;;;;;;13.70;8.25;;;11.20;99.90;;;;;;7363955;19;20023;-63
2024/04/03 11:13:09;;;;;;;11.77;8.02;;;11.30;99.90;;;;;;7368977;19;20044;-65
2024/04/03 11:15:36;;;;;;;13.15;8.23;;;11.30;99.90;;;;;;7363556;19;20019;-65
2024/04/03 11:18:03;;;;;;;8.73;6.90;;;11.40;99.90;;;;;;7361646;19;20769;-65
2024/04/03 11:20:36;;;;;;;13.20;7.63;;;11.40;99.90;;;;;;7371381;19;20054;-63
2024/04/03 11:23:05;;;;;;;10.80;8.25;;;11.40;99.90;;;;;;7368119;19;20037;-63
2024/04/03 11:25:32;;;;;;;11.02;7.90;;;11.40;99.90;;;;;;7370869;19;20758;-66
2024/04/03 11:28:00;;;;;;;9.40;8.35;;;11.40;99.90;;;;;;7373648;19;20027;-65
2024/04/03 11:30:27;;;;;;;10.00;7.47;;;11.40;99.90;;;;;;7369405;19;20014;-65
2024/04/03 11:32:58;;;;;;;8.90;8.00;;;11.40;99.90;;;;;;7363403;19;20014;-61
2024/04/03 11:35:24;;;;;;;63.08;50.97;;;11.30;99.90;;;;;;7366896;19;20041;-64
2024/04/03 11:37:51;;;;;;;49.40;39.38;;;11.40;99.90;;;;;;7369486;19;20446;-61
2024/04/03 11:40:17;;;;;;;44.38;35.55;;;11.50;99.90;;;;;;7370931;19;20038;-64
2024/04/03 11:42:44;;;;;;;14.73;11.60;;;11.60;99.90;;;;;;7373113;19;20755;-63
2024/04/03 11:45:10;;;;;;;19.05;13.43;;;11.80;99.90;;;;;;7374507;19;20018;-63
2024/04/03 11:47:37;;;;;;;13.65;8.27;;;11.90;99.90;;;;;;7367300;19;20152;-63
2024/04/03 11:50:04;;;;;;;13.88;10.23;;;12.10;99.90;;;;;;7373472;19;20026;-63
2024/04/03 11:52:32;;;;;;;12.93;8.90;;;12.20;99.90;;;;;;7371433;19;20656;-63
2024/04/03 11:54:59;;;;;;;12.50;7.05;;;12.20;99.90;;;;;;7372148;19;20028;-62
2024/04/03 11:57:25;;;;;;;8.88;4.88;;;12.20;99.90;;;;;;7370619;19;20094;-62
2024/04/03 11:59:52;;;;;;;7.07;4.70;;;12.10;99.90;;;;;;7368171;19;20014;-64
2024/04/03 12:02:18;;;;;;;6.38;5.55;;;12.10;99.90;;;;;;7365789;19;20022;-62
2024/04/03 12:04:46;;;;;;;6.03;4.18;;;12.10;99.90;;;;;;7371006;19;20086;-61
2024/04/03 12:07:12;;;;;;;6.47;4.28;;;12.10;99.90;;;;;;7370030;19;20769;-68
2024/04/03 12:09:41;;;;;;;91.13;80.80;;;12.10;99.90;;;;;;7371234;19;20384;-63
2024/04/03 12:12:08;;;;;;;69.30;58.38;;;12.20;99.90;;;;;;7372641;19;20553;-60
2024/04/03 12:14:35;;;;;;;14.95;12.27;;;12.30;99.90;;;;;;7371776;19;20031;-62
2024/04/03 12:17:05;;;;;;;6.72;5.43;;;12.30;99.90;;;;;;7363653;19;20026;-63
2024/04/03 12:20:04;;;;;;;120.50;107.25;;;12.40;99.90;;;;;;7366338;19;20055;-61
2024/04/03 12:22:32;;;;;;;6.95;5.38;;;12.30;99.90;;;;;;7369602;19;20432;-68
2024/04/03 12:24:59;;;;;;;6.30;4.65;;;12.30;99.90;;;;;;7370764;19;20015;-58
2024/04/03 12:27:27;;;;;;;6.65;5.07;;;12.30;99.90;;;;;;7370262;19;20018;-62
2024/04/03 12:29:53;;;;;;;7.28;4.82;;;12.30;99.90;;;;;;7369238;19;20034;-61
2024/04/03 12:32:19;;;;;;;9.15;6.20;;;12.40;99.90;;;;;;7368912;19;20045;-60
2024/04/03 12:34:47;;;;;;;6.95;5.15;;;12.40;99.90;;;;;;7369621;19;20074;-62
2024/04/03 12:37:15;;;;;;;6.15;4.38;;;12.50;99.90;;;;;;7371421;19;20015;-61
2024/04/03 12:39:42;;;;;;;5.85;3.97;;;12.60;99.90;;;;;;7367015;19;20022;-51
2024/04/03 12:42:10;;;;;;;5.45;3.38;;;12.60;99.90;;;;;;7366664;19;20018;-61
2024/04/03 12:44:37;;;;;;;16.10;14.43;;;12.60;99.90;;;;;;7369984;19;20485;-59